Time;durP1;ratioP1;P1;durP2;ratioP2;P2;SDS_P1;SDS_P2;PMS_P1;PMS_P2;Temp;Humidity;BMP_temperature;BMP_pressure;BME280_temperature;BME280_humidity;BME280_pressure;Samples;Min_cycle;Max_cycle;Signal;HPM_P1;HPM_P2
2023/06/22 00:01:01;;;;;;;2.55;1.65;;;;;;;28.96;36.61;101539.94;4953617;28;20039;-63
2023/06/22 00:03:27;;;;;;;3.42;2.03;;;;;;;29.03;36.44;101556.44;4953419;28;20031;-63
2023/06/22 00:05:52;;;;;;;4.47;1.70;;;;;;;28.97;36.80;101547.16;4954740;28;20039;-63
2023/06/22 00:08:19;;;;;;;2.88;1.85;;;;;;;28.96;36.97;101550.97;4954525;28;20118;-63
2023/06/22 00:10:45;;;;;;;4.38;1.90;;;;;;;28.91;37.16;101544.47;4953454;28;20086;-63
2023/06/22 00:13:11;;;;;;;2.85;2.05;;;;;;;28.91;37.56;101548.09;4954512;28;20039;-63
2023/06/22 00:15:38;;;;;;;2.70;1.88;;;;;;;28.88;37.49;101549.41;4953280;28;20032;-63
2023/06/22 00:18:05;;;;;;;3.60;1.83;;;;;;;28.84;37.40;101547.31;4953384;28;20055;-63
2023/06/22 00:20:30;;;;;;;5.80;2.03;;;;;;;28.81;37.70;101547.81;4937829;29;20039;-63
2023/06/22 00:22:57;;;;;;;9.20;2.25;;;;;;;28.75;37.13;101544.06;4954803;28;20542;-63
2023/06/22 00:25:22;;;;;;;3.67;1.80;;;;;;;28.74;37.48;101541.50;4954344;28;20090;-63
2023/06/22 00:27:48;;;;;;;3.95;1.45;;;;;;;28.74;37.16;101541.50;4954604;28;20078;-63
2023/06/22 00:30:14;;;;;;;4.55;1.70;;;;;;;28.74;37.99;101544.28;4937416;29;20507;-63
2023/06/22 00:32:40;;;;;;;2.47;2.08;;;;;;;28.73;37.64;101539.81;4954826;28;20031;-63
2023/06/22 00:35:05;;;;;;;2.72;1.88;;;;;;;28.72;36.99;101538.16;4937686;28;20174;-63
2023/06/22 00:37:31;;;;;;;2.90;1.60;;;;;;;28.70;37.21;101543.06;4953339;28;20539;-63
2023/06/22 00:39:56;;;;;;;3.17;1.75;;;;;;;28.67;37.31;101530.56;4937749;29;20517;-63
2023/06/22 00:42:22;;;;;;;2.15;1.70;;;;;;;28.65;37.29;101531.84;4953261;28;20031;-63
2023/06/22 00:44:47;;;;;;;6.38;2.05;;;;;;;28.63;37.05;101534.00;4955297;28;20027;-63
2023/06/22 00:47:15;;;;;;;2.85;1.65;;;;;;;28.60;37.11;101529.78;4940907;29;20035;-63
2023/06/22 00:49:40;;;;;;;6.63;2.38;;;;;;;28.60;37.89;101539.94;4956996;28;20031;-63
2023/06/22 00:52:13;;;;;;;2.97;2.08;;;;;;;28.59;37.73;101532.75;4956789;28;20039;-63
2023/06/22 00:54:45;;;;;;;2.42;1.75;;;;;;;28.55;38.25;101528.78;4956892;28;20094;-63
2023/06/22 00:57:12;;;;;;;5.60;1.77;;;;;;;28.57;37.96;101535.75;4957599;28;20047;-63
2023/06/22 00:59:39;;;;;;;2.30;1.50;;;;;;;28.55;37.96;101537.91;4940590;28;20030;-63
2023/06/22 01:02:04;;;;;;;2.17;1.65;;;;;;;28.56;37.79;101527.72;4956682;28;20491;-65
2023/06/22 01:04:37;;;;;;;2.10;1.67;;;;;;;28.53;37.99;101526.22;4972667;28;20034;-63
2023/06/22 01:07:04;;;;;;;;;;;;;;;28.56;38.54;101527.72;4956780;28;20387;-63
2023/06/22 01:09:33;;;;;;;2.95;1.75;;;;;;;28.55;37.61;101524.13;4957914;28;19913;-63
2023/06/22 01:12:02;;;;;;;2.58;1.80;;;;;;;28.57;38.46;101518.34;4956881;28;22271;-63
2023/06/22 01:14:28;;;;;;;3.10;1.67;;;;;;;28.57;37.43;101521.97;4956641;28;20051;-64
2023/06/22 01:16:55;;;;;;;5.05;2.08;;;;;;;28.57;37.93;101524.72;4956268;28;20031;-64
2023/06/22 01:19:34;;;;;;;6.50;2.40;;;;;;;28.56;37.80;101523.03;4956590;28;20035;-63
2023/06/22 01:22:01;;;;;;;2.78;1.92;;;;;;;28.60;38.26;101512.38;4957696;28;20027;-63
2023/06/22 01:24:44;;;;;;;3.47;1.98;;;;;;;28.61;37.99;101505.81;4956938;28;20039;-63
2023/06/22 01:27:24;;;;;;;4.25;2.10;;;;;;;28.59;37.84;101506.00;4940494;29;20032;-63
2023/06/22 01:29:52;;;;;;;2.22;1.70;;;;;;;28.62;37.89;101510.22;4940198;29;20046;-63
2023/06/22 01:32:18;;;;;;;2.65;1.80;;;;;;;28.61;37.99;101506.66;4972147;28;20123;-63
2023/06/22 01:34:45;;;;;;;4.75;2.20;;;;;;;28.60;37.64;101501.34;4955703;28;20046;-63
2023/06/22 01:37:11;;;;;;;7.78;2.42;;;;;;;28.60;37.68;101502.19;4939822;29;20063;-63
2023/06/22 01:39:36;;;;;;;6.22;2.70;;;;;;;28.59;38.31;101500.50;4940205;29;20475;-64
2023/06/22 01:42:02;;;;;;;2.65;2.35;;;;;;;28.56;37.62;101494.63;4956289;28;20036;-63
2023/06/22 01:44:28;;;;;;;3.00;2.25;;;;;;;28.58;37.53;101492.47;4955602;28;20033;-63
2023/06/22 01:46:53;;;;;;;3.30;2.22;;;;;;;28.58;37.31;101500.75;4955677;28;20027;-63
2023/06/22 01:49:19;;;;;;;6.45;2.72;;;;;;;28.57;37.55;101491.63;4971632;28;20537;-63
2023/06/22 01:51:44;;;;;;;4.03;2.95;;;;;;;28.56;37.88;101498.19;4939593;29;20118;-63
2023/06/22 01:54:10;;;;;;;7.95;3.88;;;;;;;28.57;38.36;101501.81;4939580;29;20048;-64
2023/06/22 01:56:35;;;;;;;7.30;3.45;;;;;;;28.57;38.33;101496.28;4955928;28;20039;-64
2023/06/22 01:59:26;;;;;;;6.78;3.53;;;;;;;28.56;37.89;101495.44;4955251;28;20031;-63
2023/06/22 02:01:59;;;;;;;5.32;3.15;;;;;;;28.54;38.01;101497.59;4955286;28;20035;-64
2023/06/22 02:04:28;;;;;;;7.28;3.75;;;;;;;28.51;38.34;101499.97;4939686;29;20443;-64
2023/06/22 02:06:57;;;;;;;8.75;4.68;;;;;;;28.51;38.17;101492.53;4955942;28;20034;-64
2023/06/22 02:09:24;;;;;;;6.10;3.72;;;;;;;28.51;38.34;101497.22;4955777;28;20042;-63
2023/06/22 02:11:53;;;;;;;5.32;4.15;;;;;;;28.51;38.34;101494.47;4955341;28;20035;-63
2023/06/22 02:14:19;;;;;;;6.57;4.05;;;;;;;28.49;38.36;101485.59;4955036;28;20034;-63
2023/06/22 02:16:44;;;;;;;7.15;4.35;;;;;;;28.49;39.10;101482.81;4955191;28;20031;-64
2023/06/22 02:19:10;;;;;;;8.82;4.85;;;;;;;28.51;38.99;101483.44;4939042;29;20511;-63
2023/06/22 02:21:35;;;;;;;7.22;4.72;;;;;;;28.51;39.06;101480.66;4955428;28;20089;-63
2023/06/22 02:24:01;;;;;;;9.80;5.35;;;;;;;28.51;39.02;101487.03;4955383;28;20494;-64
2023/06/22 02:26:27;;;;;;;10.45;5.18;;;;;;;28.49;39.32;101478.16;4956728;28;20055;-63
2023/06/22 02:28:52;;;;;;;9.98;5.35;;;;;;;28.49;39.72;101482.81;4939312;29;20526;-63
2023/06/22 02:31:18;;;;;;;10.50;6.43;;;;;;;28.47;39.83;101476.72;4923180;29;20039;-64
2023/06/22 02:33:44;;;;;;;11.20;5.25;;;;;;;28.46;39.57;101475.00;4938918;29;20567;-63
2023/06/22 02:36:13;;;;;;;14.15;5.95;;;;;;;28.43;39.15;101472.72;4955109;28;20031;-63
2023/06/22 02:38:47;;;;;;;8.70;5.22;;;;;;;28.42;39.78;101466.34;4923933;29;20059;-63
2023/06/22 02:41:17;;;;;;;8.00;5.13;;;;;;;28.42;39.72;101462.78;4924758;28;20046;-63
2023/06/22 02:43:43;;;;;;;8.75;5.72;;;;;;;28.41;39.95;101474.88;4953217;28;20023;-63
2023/06/22 02:46:08;;;;;;;13.40;7.00;;;;;;;28.39;40.00;101460.47;4919469;28;20032;-63
2023/06/22 02:48:34;;;;;;;9.02;6.10;;;;;;;28.37;39.87;101468.13;4935466;28;20020;-62
2023/06/22 02:50:59;;;;;;;8.43;5.93;;;;;;;28.37;39.29;101468.13;4919680;28;20038;-63
2023/06/22 02:53:25;;;;;;;10.00;5.40;;;;;;;28.34;40.34;101452.88;4935224;28;20183;-63
2023/06/22 02:55:50;;;;;;;12.23;6.55;;;;;;;28.33;39.88;101455.88;4936695;28;20028;-63
2023/06/22 02:58:16;;;;;;;8.27;5.32;;;;;;;28.26;40.45;101440.25;4951420;28;20035;-63
2023/06/22 03:00:43;;;;;;;11.25;6.95;;;;;;;28.29;39.84;101453.59;4935335;28;20086;-63
2023/06/22 03:03:08;;;;;;;11.20;6.05;;;;;;;28.27;39.96;101441.97;4919632;28;20494;-63
2023/06/22 03:05:35;;;;;;;11.48;6.55;;;;;;;28.27;39.89;101439.19;4935121;28;20039;-63
2023/06/22 03:08:00;;;;;;;12.45;5.90;;;;;;;28.22;40.68;101430.78;4934985;28;20074;-64
2023/06/22 03:10:26;;;;;;;10.90;6.25;;;;;;;28.24;39.83;101430.53;4936386;28;20064;-63
2023/06/22 03:12:51;;;;;;;13.80;6.75;;;;;;;28.24;40.00;101423.13;4935074;28;20032;-63
2023/06/22 03:15:17;;;;;;;14.13;6.57;;;;;;;28.23;40.13;101428.84;4935778;28;20063;-63
2023/06/22 03:17:42;;;;;;;14.80;6.97;;;;;;;28.23;39.90;101417.81;4934622;28;20040;-63
2023/06/22 03:20:10;;;;;;;11.57;5.97;;;;;;;28.22;40.79;101417.00;4934293;28;20122;-63
2023/06/22 03:22:40;;;;;;;10.27;6.47;;;;;;;28.20;41.17;101419.13;4935889;28;20036;-64
2023/06/22 03:25:09;;;;;;;9.70;5.68;;;;;;;28.20;41.23;101419.13;4934743;28;20028;-63
2023/06/22 03:27:36;;;;;;;14.32;6.45;;;;;;;28.18;40.71;101415.78;4936109;28;20059;-63
2023/06/22 03:30:01;;;;;;;11.55;6.25;;;;;;;28.17;40.41;101416.84;4950433;28;20488;-63
2023/06/22 03:32:27;;;;;;;9.55;6.40;;;;;;;28.18;40.30;101428.72;4934458;28;20043;-63
2023/06/22 03:34:53;;;;;;;10.00;6.38;;;;;;;28.18;41.37;101426.78;4935747;28;20082;-63
2023/06/22 03:37:19;;;;;;;12.55;6.80;;;;;;;28.13;40.87;101418.38;4919000;29;20551;-63
2023/06/22 03:39:44;;;;;;;12.23;6.07;;;;;;;28.18;40.90;101420.44;4935971;28;20051;-63
2023/06/22 03:42:09;;;;;;;13.30;7.90;;;;;;;28.17;41.38;101419.59;4933500;28;20039;-63
2023/06/22 03:44:36;;;;;;;12.45;6.45;;;;;;;28.18;41.62;101421.28;4918695;29;20059;-63
2023/06/22 03:47:02;;;;;;;19.30;7.18;;;;;;;28.18;40.62;101421.28;4950415;28;20051;-63
2023/06/22 03:49:27;;;;;;;11.18;6.82;;;;;;;28.18;40.83;101426.78;4950559;28;20056;-63
2023/06/22 03:51:53;;;;;;;17.88;7.53;;;;;;;28.18;41.06;101421.28;4934805;28;20090;-63
2023/06/22 03:54:18;;;;;;;17.38;7.25;;;;;;;28.18;41.63;101415.78;4938076;28;20118;-63
2023/06/22 03:56:44;;;;;;;10.05;6.95;;;;;;;28.19;41.72;101422.97;4934662;29;20036;-63
2023/06/22 03:59:09;;;;;;;11.48;7.22;;;;;;;28.19;41.46;101417.47;4934855;28;20055;-63
2023/06/22 04:01:35;;;;;;;10.68;7.72;;;;;;;28.20;41.42;101418.28;4934519;28;20040;-64
2023/06/22 04:04:00;;;;;;;15.38;8.60;;;;;;;28.21;42.17;101417.22;4935843;28;20028;-64
2023/06/22 04:06:26;;;;;;;13.88;7.53;;;;;;;28.19;41.40;101405.59;4935897;28;20039;-63
2023/06/22 04:08:51;;;;;;;11.10;8.20;;;;;;;28.18;41.04;101404.75;4936031;28;20503;-63
2023/06/22 04:11:18;;;;;;;12.80;7.53;;;;;;;28.21;41.78;101404.28;4935950;28;20028;-63
2023/06/22 04:13:43;;;;;;;15.60;8.15;;;;;;;28.22;41.32;101394.97;4952439;28;20039;-64
2023/06/22 04:16:09;;;;;;;13.43;6.90;;;;;;;28.22;41.16;101406.00;4937186;28;20047;-63
2023/06/22 04:18:34;;;;;;;14.50;9.13;;;;;;;28.24;41.98;101403.84;4943189;28;20039;-63
2023/06/22 04:20:59;;;;;;;14.00;7.72;;;;;;;28.25;42.25;101399.97;4941668;28;20062;-63
2023/06/22 04:23:25;;;;;;;11.45;6.75;;;;;;;28.26;41.78;101401.69;4942353;28;20118;-63
2023/06/22 04:25:51;;;;;;;13.90;7.70;;;;;;;28.27;41.80;101403.38;4957077;28;20058;-63
2023/06/22 04:28:16;;;;;;;15.48;8.27;;;;;;;28.31;42.36;101410.09;4953881;28;20396;-63
2023/06/22 04:30:46;;;;;;;14.43;7.55;;;;;;;28.34;41.31;101414.28;4960987;28;20539;-63
2023/06/22 04:33:15;;;;;;;11.05;7.45;;;;;;;28.35;42.42;101413.22;4957253;28;20042;-63
2023/06/22 04:35:43;;;;;;;14.45;7.53;;;;;;;28.38;42.12;101411.94;4956933;28;20074;-63
2023/06/22 04:38:08;;;;;;;12.40;7.93;;;;;;;28.39;41.49;101410.88;4957144;28;20070;-63
2023/06/22 04:40:34;;;;;;;13.00;7.82;;;;;;;28.39;42.48;101408.09;4957195;28;20055;-63
2023/06/22 04:43:02;;;;;;;12.32;7.95;;;;;;;28.41;42.60;101408.72;4958074;28;20043;-63
2023/06/22 04:45:29;;;;;;;13.35;7.63;;;;;;;28.44;42.08;101416.53;4957979;28;20491;-63
2023/06/22 04:47:54;;;;;;;14.85;9.07;;;;;;;28.41;42.26;101411.47;4957218;28;20043;-63
2023/06/22 04:50:21;;;;;;;12.18;7.38;;;;;;;28.43;41.97;101423.09;4940806;29;20036;-63
2023/06/22 04:52:46;;;;;;;11.40;7.30;;;;;;;28.43;41.91;101423.94;4956878;28;20031;-63
2023/06/22 04:55:12;;;;;;;12.35;7.25;;;;;;;28.46;41.80;101430.91;4957743;28;20050;-63
2023/06/22 04:57:39;;;;;;;10.40;7.22;;;;;;;28.48;42.17;101426.00;4940565;29;20031;-63
2023/06/22 05:00:38;;;;;;;11.82;7.75;;;;;;;28.49;42.64;101423.00;4957840;28;20031;-63
2023/06/22 05:03:03;;;;;;;17.05;7.65;;;;;;;28.50;42.37;101429.38;4958467;28;20032;-63
2023/06/22 05:05:28;;;;;;;12.35;6.78;;;;;;;28.49;42.24;101433.19;4957683;28;20036;-63
2023/06/22 05:07:59;;;;;;;14.50;7.55;;;;;;;28.52;42.63;101432.75;4957620;28;20058;-63
2023/06/22 05:10:25;;;;;;;11.35;7.85;;;;;;;28.51;41.97;101426.38;4956704;28;20415;-63
2023/06/22 05:12:50;;;;;;;14.60;8.82;;;;;;;28.52;42.31;101421.72;4972758;28;20031;-62
2023/06/22 05:15:16;;;;;;;13.82;7.82;;;;;;;28.53;42.43;101424.22;4956799;28;20184;-63
2023/06/22 05:17:44;;;;;;;12.75;7.15;;;;;;;28.50;42.19;101419.19;4972181;28;20051;-63
2023/06/22 05:20:11;;;;;;;13.38;7.60;;;;;;;28.53;41.65;101429.72;4940830;29;20035;-63
2023/06/22 05:22:36;;;;;;;14.32;8.35;;;;;;;28.56;42.57;101431.22;4940211;29;20032;-63
2023/06/22 05:25:02;;;;;;;15.25;8.18;;;;;;;28.56;42.79;101426.50;4956234;28;20039;-64
2023/06/22 05:27:27;;;;;;;18.60;8.25;;;;;;;28.56;42.65;101433.97;4956078;28;20035;-63
2023/06/22 05:29:53;;;;;;;11.05;6.57;;;;;;;28.56;42.95;101428.44;4957299;28;20035;-63
2023/06/22 05:32:18;;;;;;;14.10;7.45;;;;;;;28.57;41.92;101435.63;4955900;28;20031;-63
2023/06/22 05:34:44;;;;;;;12.75;7.50;;;;;;;28.57;42.59;101435.63;4939984;29;20094;-63
2023/06/22 05:37:09;;;;;;;11.32;7.15;;;;;;;28.60;42.48;101443.44;4957456;28;20517;-61
2023/06/22 05:39:37;;;;;;;17.85;7.53;;;;;;;28.61;42.20;101439.63;4955713;28;20111;-64
2023/06/22 05:42:04;;;;;;;13.27;7.72;;;;;;;28.63;42.55;101434.75;4957330;28;20503;-62
2023/06/22 05:44:29;;;;;;;15.43;8.10;;;;;;;28.67;42.22;101447.00;4956306;28;20380;-62
2023/06/22 05:46:55;;;;;;;13.57;7.20;;;;;;;28.68;42.50;101445.91;4972590;28;20034;-61
2023/06/22 05:49:22;;;;;;;12.20;6.80;;;;;;;28.68;42.77;101448.66;4956971;28;20111;-61
2023/06/22 05:51:47;;;;;;;12.48;7.68;;;;;;;28.68;42.99;101452.28;4940060;29;20031;-61
2023/06/22 05:54:13;;;;;;;28.42;9.45;;;;;;;28.70;41.93;101452.88;4955606;28;20032;-62
2023/06/22 05:56:39;;;;;;;12.85;7.97;;;;;;;28.68;42.33;101443.16;4955787;28;20495;-62
2023/06/22 05:59:04;;;;;;;15.52;8.13;;;;;;;28.71;42.52;101450.97;4939637;29;20042;-61
2023/06/22 06:01:30;;;;;;;11.88;7.53;;;;;;;28.68;42.21;101444.00;4957135;28;20027;-62
2023/06/22 06:03:56;;;;;;;13.98;8.50;;;;;;;28.68;42.66;101443.16;4939928;29;20035;-62
2023/06/22 06:06:28;;;;;;;16.73;7.88;;;;;;;28.62;42.83;101444.88;4956654;28;20039;-62
2023/06/22 06:08:54;;;;;;;14.02;6.95;;;;;;;28.62;42.72;101449.56;4956687;28;20032;-63
2023/06/22 06:11:19;;;;;;;14.80;8.60;;;;;;;28.62;43.04;101460.59;4956589;28;20043;-63
2023/06/22 06:13:45;;;;;;;15.48;8.32;;;;;;;28.60;42.80;101448.97;4954746;28;20031;-63
2023/06/22 06:16:10;;;;;;;19.75;9.73;;;;;;;28.62;43.17;101452.31;4952059;28;20444;-62
2023/06/22 06:18:37;;;;;;;13.07;8.15;;;;;;;28.63;42.36;101456.81;4935648;28;20130;-62
2023/06/22 06:21:03;;;;;;;12.05;7.68;;;;;;;28.64;42.78;101450.22;4936174;28;20036;-62
2023/06/22 06:23:28;;;;;;;18.40;8.52;;;;;;;28.66;43.05;101456.34;4936255;28;20094;-62
2023/06/22 06:25:54;;;;;;;18.30;8.52;;;;;;;28.67;43.17;101456.09;4936319;28;20031;-62
2023/06/22 06:28:19;;;;;;;14.65;9.68;;;;;;;28.70;43.26;101441.03;4920204;28;20141;-62
2023/06/22 06:30:47;;;;;;;13.45;8.07;;;;;;;28.70;43.34;101441.03;4935852;28;20034;-62
2023/06/22 06:33:12;;;;;;;15.80;9.23;;;;;;;28.69;42.68;101436.56;4935751;28;20475;-62
2023/06/22 06:35:38;;;;;;;15.60;9.38;;;;;;;28.71;43.60;101431.66;4935764;28;20030;-61
2023/06/22 06:38:03;;;;;;;17.75;9.77;;;;;;;28.73;42.78;101424.81;4935797;28;20114;-62
2023/06/22 06:40:28;;;;;;;12.27;8.80;;;;;;;28.75;43.05;101427.38;4951723;28;20027;-62
2023/06/22 06:42:54;;;;;;;16.10;9.60;;;;;;;28.77;43.56;101416.94;4919271;28;20031;-62
2023/06/22 06:45:23;;;;;;;18.38;8.95;;;;;;;28.84;43.29;101414.91;4935669;28;20399;-62
2023/06/22 06:47:50;;;;;;;16.00;9.50;;;;;;;28.92;43.78;101414.59;4935261;28;20483;-61
2023/06/22 06:50:17;;;;;;;17.90;8.88;;;;;;;29.16;42.71;101413.56;4936852;28;20028;-62
2023/06/22 06:52:42;;;;;;;14.80;10.43;;;;;;;29.26;42.83;101408.31;4935442;28;20039;-61
2023/06/22 06:55:09;;;;;;;14.30;9.18;;;;;;;29.37;43.73;101415.78;4936696;28;20028;-62
2023/06/22 06:57:34;;;;;;;18.77;9.55;;;;;;;29.49;43.04;101401.13;4936691;28;20118;-62
2023/06/22 07:00:00;;;;;;;19.55;10.55;;;;;;;29.61;43.00;101399.22;4951240;28;20480;-62
2023/06/22 07:02:27;;;;;;;16.52;10.77;;;;;;;29.74;42.60;101398.97;4935388;28;20078;-62
2023/06/22 07:04:55;;;;;;;18.67;9.82;;;;;;;29.94;42.40;101388.41;4951314;28;20039;-62
2023/06/22 07:07:20;;;;;;;16.65;10.48;;;;;;;30.06;43.02;101396.69;4936632;28;20062;-62
2023/06/22 07:09:46;;;;;;;15.35;9.68;;;;;;;30.12;43.07;101391.03;4951259;28;20498;-62
2023/06/22 07:12:11;;;;;;;15.80;9.32;;;;;;;30.17;42.95;101388.38;4937230;28;20087;-62
2023/06/22 07:14:37;;;;;;;14.82;10.30;;;;;;;30.23;43.14;101392.91;4919363;29;20091;-62
2023/06/22 07:17:02;;;;;;;16.10;9.60;;;;;;;30.29;42.47;101382.81;4936235;28;20407;-62
2023/06/22 07:19:28;;;;;;;15.77;10.45;;;;;;;30.36;42.43;101364.97;4936192;28;20113;-62
2023/06/22 07:21:53;;;;;;;15.52;9.05;;;;;;;30.49;42.35;101364.69;4936151;28;20047;-62
2023/06/22 07:24:22;;;;;;;16.73;7.88;;;;;;;30.68;42.30;101351.53;4936233;28;20028;-61
2023/06/22 07:26:49;;;;;;;15.50;9.38;;;;;;;30.93;41.92;101353.94;4934991;28;20466;-62
2023/06/22 07:29:20;;;;;;;12.38;8.65;;;;;;;31.10;41.67;101354.78;4935124;28;20036;-62
2023/06/22 07:31:46;;;;;;;16.98;8.85;;;;;;;31.44;41.29;101345.31;4919226;29;20040;-62
2023/06/22 07:34:12;;;;;;;16.35;8.85;;;;;;;31.50;40.89;101344.34;4934740;28;20039;-62
2023/06/22 07:36:37;;;;;;;12.88;8.75;;;;;;;31.62;41.32;101336.78;4918842;29;20040;-62
2023/06/22 07:39:03;;;;;;;13.88;8.95;;;;;;;31.77;40.68;101327.00;4934701;28;20031;-62
2023/06/22 07:41:29;;;;;;;16.20;9.27;;;;;;;31.88;40.63;101323.25;4935986;28;20031;-63
2023/06/22 07:43:54;;;;;;;15.85;8.93;;;;;;;31.98;40.68;101312.28;4936063;28;20491;-63
2023/06/22 07:46:20;;;;;;;14.52;9.13;;;;;;;32.00;40.77;101304.53;4935774;28;20043;-62
2023/06/22 07:48:45;;;;;;;15.65;8.68;;;;;;;32.08;40.68;101313.28;4934578;28;20042;-62
2023/06/22 07:51:14;;;;;;;14.48;8.90;;;;;;;32.31;40.09;101306.59;4934711;28;20079;-62
2023/06/22 07:53:41;;;;;;;13.50;8.20;;;;;;;32.73;39.19;101310.38;4935555;28;20176;-62
2023/06/22 07:56:07;;;;;;;12.88;8.82;;;;;;;33.17;38.30;101319.38;4935185;28;20035;-63
2023/06/22 07:58:33;;;;;;;15.88;8.65;;;;;;;33.39;39.19;101314.53;4950338;28;20415;-62
2023/06/22 08:00:59;;;;;;;13.38;8.13;;;;;;;33.39;38.04;101303.41;4936013;28;20032;-63
2023/06/22 08:03:24;;;;;;;15.00;9.05;;;;;;;33.59;37.64;101297.16;4938718;28;20032;-62
2023/06/22 08:05:49;;;;;;;16.48;8.40;;;;;;;33.74;37.27;101305.59;4935165;29;20500;-62
2023/06/22 08:08:15;;;;;;;12.98;8.00;;;;;;;34.09;37.14;101304.91;4934792;28;20515;-62
2023/06/22 08:10:41;;;;;;;13.07;9.45;;;;;;;34.13;37.24;101297.69;4933904;28;20040;-63
2023/06/22 08:13:06;;;;;;;17.83;9.30;;;;;;;34.33;36.94;101294.13;4935775;28;20063;-62
2023/06/22 08:15:32;;;;;;;16.17;8.60;;;;;;;34.69;36.33;101283.91;4935697;28;20504;-63
2023/06/22 08:17:57;;;;;;;19.90;8.23;;;;;;;34.73;36.15;101279.47;4918407;29;20079;-63
2023/06/22 08:20:23;;;;;;;13.23;9.85;;;;;;;34.62;36.82;101283.34;4935805;28;20037;-63
2023/06/22 08:22:48;;;;;;;16.10;10.13;;;;;;;34.56;36.59;101290.84;4936072;28;20126;-61
2023/06/22 08:25:14;;;;;;;13.60;8.60;;;;;;;34.57;36.40;101281.38;4921349;28;20452;-62
2023/06/22 08:27:39;;;;;;;14.60;9.00;;;;;;;34.63;36.39;101291.41;4942298;28;20047;-63
2023/06/22 08:30:07;;;;;;;14.63;8.45;;;;;;;34.68;36.09;101282.22;4934338;28;20496;-62
2023/06/22 08:32:32;;;;;;;12.73;8.45;;;;;;;34.61;36.46;101288.09;4934700;28;20068;-62
2023/06/22 08:34:58;;;;;;;12.25;9.15;;;;;;;34.64;35.83;101279.19;4934605;28;20070;-63
2023/06/22 08:37:30;;;;;;;15.50;9.15;;;;;;;34.76;35.89;101290.03;4935626;28;20124;-62
2023/06/22 08:39:55;;;;;;;13.68;10.00;;;;;;;34.75;36.76;101280.84;4919070;29;20522;-62
2023/06/22 08:42:21;;;;;;;14.07;9.40;;;;;;;34.75;36.26;101277.22;4934104;28;20032;-62
2023/06/22 08:44:46;;;;;;;14.55;9.93;;;;;;;34.76;36.11;101271.34;4935721;28;20083;-62
2023/06/22 08:47:11;;;;;;;13.48;9.02;;;;;;;34.72;36.97;101256.34;4934266;28;20126;-62
2023/06/22 08:49:37;;;;;;;16.52;9.75;;;;;;;34.67;36.40;101259.13;4935408;28;20039;-61
2023/06/22 08:52:02;;;;;;;17.95;9.38;;;;;;;34.68;36.93;101260.78;4935498;28;20036;-62
2023/06/22 08:54:28;;;;;;;13.60;9.43;;;;;;;34.70;36.02;101258.56;4918239;29;20508;-62
2023/06/22 08:56:53;;;;;;;15.23;9.07;;;;;;;34.76;36.06;101263.00;4935381;28;20439;-63
2023/06/22 08:59:18;;;;;;;16.50;9.70;;;;;;;35.03;36.46;101260.78;4935237;28;20032;-62
2023/06/22 09:01:45;;;;;;;17.77;10.52;;;;;;;35.13;36.19;101250.75;4933895;28;20035;-62
2023/06/22 09:04:11;;;;;;;12.32;9.65;;;;;;;35.12;36.21;101243.53;4935396;28;20032;-62
2023/06/22 09:06:41;;;;;;;13.60;9.70;;;;;;;35.25;36.12;101248.50;4935909;28;20031;-62
2023/06/22 09:09:06;;;;;;;18.10;9.70;;;;;;;35.26;35.76;101247.38;4938519;28;20036;-62
2023/06/22 09:11:32;;;;;;;15.38;8.95;;;;;;;35.22;35.66;101249.06;4937431;28;20463;-62
2023/06/22 09:13:57;;;;;;;14.48;8.80;;;;;;;35.16;35.96;101239.03;4938512;28;20035;-62
2023/06/22 09:16:22;;;;;;;11.55;7.68;;;;;;;35.07;36.79;101236.81;4938779;28;20039;-61
2023/06/22 09:18:48;;;;;;;15.10;8.55;;;;;;;35.09;36.65;101236.56;4938514;28;20051;-61
2023/06/22 09:21:13;;;;;;;13.27;9.23;;;;;;;35.14;36.70;101241.28;4938063;28;20036;-62
2023/06/22 09:23:39;;;;;;;14.23;9.15;;;;;;;35.08;36.29;101238.50;4938423;28;20036;-64
2023/06/22 09:26:04;;;;;;;13.43;8.55;;;;;;;34.99;36.24;101239.31;4953172;28;20118;-62
2023/06/22 09:28:30;;;;;;;15.00;8.27;;;;;;;34.91;36.76;101231.53;4937121;28;20048;-62
2023/06/22 09:30:58;;;;;;;12.90;7.80;;;;;;;34.78;36.94;101232.97;4936919;28;20092;-64
2023/06/22 09:33:24;;;;;;;14.85;9.65;;;;;;;34.65;37.01;101236.28;4937959;28;20060;-62
2023/06/22 09:35:50;;;;;;;12.05;8.35;;;;;;;34.51;36.45;101238.75;4938025;28;20130;-62
2023/06/22 09:38:16;;;;;;;14.60;8.85;;;;;;;34.36;37.61;101226.78;4936993;28;20478;-63
2023/06/22 09:40:41;;;;;;;15.32;8.27;;;;;;;34.23;37.04;101227.34;4937102;28;20064;-61
2023/06/22 09:43:07;;;;;;;12.82;7.88;;;;;;;34.11;36.60;101218.41;4938000;28;20503;-62
2023/06/22 09:45:32;;;;;;;12.93;8.65;;;;;;;33.98;36.84;101226.13;4936663;28;20039;-63
2023/06/22 09:47:57;;;;;;;13.15;7.88;;;;;;;33.88;37.60;101228.91;4920743;29;20467;-61
2023/06/22 09:50:23;;;;;;;10.70;7.70;;;;;;;33.74;37.17;101230.53;4952448;28;20054;-61
2023/06/22 09:52:54;;;;;;;12.25;7.68;;;;;;;33.64;37.10;101249.13;4936719;28;20032;-61
2023/06/22 09:55:19;;;;;;;19.33;9.25;;;;;;;33.52;37.61;101268.75;4936472;28;20115;-61
2023/06/22 09:57:45;;;;;;;12.40;8.77;;;;;;;33.36;38.29;101270.59;4937943;28;20114;-61
2023/06/22 10:00:13;;;;;;;11.20;8.25;;;;;;;33.25;38.54;101281.94;4936588;28;20086;-62
2023/06/22 10:02:39;;;;;;;12.55;8.52;;;;;;;33.05;38.64;101279.84;4937084;28;20036;-62
2023/06/22 10:05:04;;;;;;;16.48;8.73;;;;;;;32.85;38.11;101279.69;4938546;28;20570;-61
2023/06/22 10:07:30;;;;;;;14.80;9.07;;;;;;;32.74;38.86;101298.19;4937890;28;20035;-62
2023/06/22 10:09:55;;;;;;;19.35;9.85;;;;;;;32.60;38.52;101308.06;4936728;28;20124;-62
2023/06/22 10:12:21;;;;;;;16.40;9.48;;;;;;;32.46;38.26;101309.53;4937400;28;20031;-62
2023/06/22 10:14:46;;;;;;;13.80;8.93;;;;;;;32.36;38.67;101306.66;4937297;28;20039;-61
2023/06/22 10:17:11;;;;;;;15.63;9.55;;;;;;;32.21;39.24;101310.13;4935320;28;20038;-61
2023/06/22 10:19:38;;;;;;;17.55;10.85;;;;;;;32.05;40.32;101304.66;4937420;28;20500;-61
2023/06/22 10:22:05;;;;;;;16.33;9.90;;;;;;;31.88;40.19;101307.47;4937633;28;20032;-62
2023/06/22 10:24:30;;;;;;;17.20;10.10;;;;;;;31.74;40.65;101305.34;4952155;28;20063;-62
2023/06/22 10:26:55;;;;;;;17.85;10.63;;;;;;;31.47;40.75;101302.47;4937277;28;20058;-62
2023/06/22 10:29:21;;;;;;;21.90;11.32;;;;;;;31.22;41.65;101313.13;4936295;28;20514;-62
2023/06/22 10:31:46;;;;;;;18.75;11.40;;;;;;;30.99;42.58;101308.66;4937293;28;20088;-62
2023/06/22 10:34:12;;;;;;;17.33;11.77;;;;;;;30.74;43.21;101305.41;4936053;28;20518;-62
2023/06/22 10:36:38;;;;;;;21.75;10.93;;;;;;;30.48;43.32;101313.25;4937470;28;20040;-62
2023/06/22 10:39:04;;;;;;;27.25;12.07;;;;;;;30.29;43.79;101305.38;4935851;28;20523;-62
2023/06/22 10:41:30;;;;;;;18.35;11.70;;;;;;;30.12;43.93;101304.50;4936943;28;20067;-62
2023/06/22 10:43:56;;;;;;;18.75;11.98;;;;;;;29.96;45.05;101295.03;4935643;28;20032;-61
2023/06/22 10:46:21;;;;;;;16.83;11.57;;;;;;;29.83;45.52;101292.56;4936683;28;20479;-62
2023/06/22 10:48:46;;;;;;;19.73;12.95;;;;;;;29.76;45.30;101275.28;4936522;28;20036;-61
2023/06/22 10:51:12;;;;;;;22.92;13.00;;;;;;;29.69;45.99;101263.50;4951372;28;20035;-62
2023/06/22 10:53:37;;;;;;;21.33;13.30;;;;;;;29.60;46.07;101226.28;4936496;28;20511;-62
2023/06/22 10:56:03;;;;;;;20.88;13.32;;;;;;;29.53;46.04;101209.88;4936669;28;20028;-63
2023/06/22 10:58:28;;;;;;;18.52;13.27;;;;;;;29.48;46.39;101203.41;4936553;28;20039;-62
2023/06/22 11:00:53;;;;;;;22.60;13.13;;;;;;;29.47;47.19;101215.53;4936474;28;20513;-62
2023/06/22 11:03:19;;;;;;;22.52;12.70;;;;;;;29.46;47.41;101225.72;4947848;28;20384;-62
2023/06/22 11:05:44;;;;;;;23.85;13.88;;;;;;;29.52;47.53;101226.69;4938631;28;20059;-64
2023/06/22 11:08:09;;;;;;;20.67;12.88;;;;;;;29.67;47.53;101224.25;4935330;28;20044;-64
2023/06/22 11:10:35;;;;;;;21.27;13.68;;;;;;;29.91;47.28;101212.03;4935215;28;20184;-62
2023/06/22 11:13:02;;;;;;;23.63;15.00;;;;;;;30.24;47.10;101214.88;4919377;29;20027;-62
2023/06/22 11:15:27;;;;;;;19.35;12.93;;;;;;;30.53;47.07;101230.38;4935100;28;20411;-62